createdAt,value
2022-08-02T00:00:00.193Z,17.46
2022-08-02T00:05:05.098Z,17.42
2022-08-02T00:10:10.129Z,17.27
2022-08-02T00:15:15.944Z,17.16
2022-08-02T00:20:20.812Z,17.12
2022-08-02T00:25:24.008Z,17.00
2022-08-02T00:30:27.006Z,17.02
2022-08-02T00:35:31.368Z,16.78
2022-08-02T00:40:34.555Z,16.75
2022-08-02T00:46:02.692Z,16.65
2022-08-02T00:51:04.484Z,16.56
2022-08-02T00:56:07.639Z,16.56
2022-08-02T01:01:10.693Z,16.41
2022-08-02T01:06:15.167Z,16.26
2022-08-02T01:11:18.167Z,16.08
2022-08-02T01:16:27.452Z,16.06
2022-08-02T01:21:46.649Z,16.00
2022-08-02T01:26:53.848Z,16.04
2022-08-02T01:32:05.349Z,15.96
2022-08-02T01:37:12.393Z,15.88
2022-08-02T01:42:17.247Z,15.89
2022-08-02T01:47:25.586Z,15.57
2022-08-02T01:52:31.985Z,15.51
2022-08-02T01:57:41.963Z,15.51
2022-08-02T02:02:49.110Z,15.53
2022-08-02T02:07:56.387Z,15.49
2022-08-02T02:13:03.736Z,15.54
2022-08-02T02:18:12.986Z,15.50
2022-08-02T02:23:17.431Z,15.34
2022-08-02T02:28:31.118Z,15.23
2022-08-02T02:33:39.544Z,15.38
2022-08-02T02:38:44.223Z,15.17
2022-08-02T02:43:48.553Z,14.71
2022-08-02T02:48:53.941Z,14.72
2022-08-02T02:54:32.083Z,15.02
2022-08-02T02:59:22.575Z,15.02
2022-08-02T03:04:36.121Z,15.03
2022-08-02T03:09:54.155Z,15.11
2022-08-02T03:14:59.697Z,14.94
2022-08-02T03:20:05.268Z,14.81
2022-08-02T03:25:09.622Z,14.89
2022-08-02T03:30:14.770Z,14.74
2022-08-02T03:35:24.173Z,14.70
2022-08-02T03:40:29.501Z,14.77
2022-08-02T03:45:32.900Z,14.81
2022-08-02T03:50:38.692Z,14.92
2022-08-02T03:55:41.959Z,14.74
2022-08-02T04:00:45.121Z,14.90
2022-08-02T04:06:03.585Z,14.33
2022-08-02T04:11:25.447Z,14.45
2022-08-02T04:16:40.014Z,14.80
2022-08-02T04:21:51.257Z,15.21
2022-08-02T04:26:57.832Z,14.73
2022-08-02T04:32:06.043Z,15.13
2022-08-02T04:37:10.473Z,15.52
2022-08-02T04:42:21.927Z,15.57
2022-08-02T04:47:54.257Z,15.76
2022-08-02T04:52:49.717Z,15.68
2022-08-02T04:57:58.795Z,15.84
2022-08-02T05:03:02.559Z,15.69
2022-08-02T05:08:07.111Z,15.77
2022-08-02T05:13:10.100Z,16.24
2022-08-02T05:18:13.035Z,15.92
2022-08-02T05:23:17.654Z,16.02
2022-08-02T05:28:20.655Z,16.60
2022-08-02T05:33:23.666Z,16.52
2022-08-02T05:38:31.127Z,16.72
2022-08-02T05:43:34.948Z,16.74
2022-08-02T05:48:38.847Z,17.07
2022-08-02T05:53:50.929Z,17.34
2022-08-02T05:58:57.994Z,17.75
2022-08-02T06:04:02.005Z,17.02
2022-08-02T06:09:11.007Z,17.23
2022-08-02T06:14:14.673Z,18.66
2022-08-02T06:19:19.814Z,20.17
2022-08-02T06:24:25.913Z,19.17
2022-08-02T06:29:35.656Z,20.33
2022-08-02T06:34:41.461Z,19.00
2022-08-02T06:39:50.106Z,18.45
2022-08-02T06:44:57.461Z,18.90
2022-08-02T06:50:01.271Z,20.14
2022-08-02T06:55:07.016Z,20.91
2022-08-02T07:00:11.377Z,22.48
2022-08-02T07:05:14.452Z,22.37
2022-08-02T07:10:18.967Z,21.72
2022-08-02T07:15:22.083Z,22.74
2022-08-02T07:20:25.293Z,24.02
2022-08-02T07:26:02.308Z,24.48
2022-08-02T07:30:52.868Z,22.41
2022-08-02T07:35:57.446Z,23.47
2022-08-02T07:41:01.817Z,23.56
2022-08-02T07:46:04.898Z,24.65
2022-08-02T07:51:07.878Z,24.34
2022-08-02T07:56:12.278Z,24.28
2022-08-02T08:01:15.334Z,23.20
2022-08-02T08:06:18.516Z,24.98
2022-08-02T08:11:22.881Z,23.21
2022-08-02T08:16:26.283Z,23.99
2022-08-02T08:21:29.663Z,25.21
2022-08-02T08:26:34.095Z,25.13
2022-08-02T08:31:37.967Z,25.91
2022-08-02T08:36:41.133Z,25.39
2022-08-02T08:41:45.563Z,25.44
2022-08-02T08:46:50.742Z,26.69
2022-08-02T08:51:56.975Z,24.83
2022-08-02T08:57:05.548Z,26.07
2022-08-02T09:02:19.515Z,26.84
2022-08-02T09:07:23.618Z,27.65
2022-08-02T09:12:28.008Z,27.17
2022-08-02T09:17:31.018Z,26.85
2022-08-02T09:22:34.546Z,27.93
2022-08-02T09:27:38.979Z,27.29
2022-08-02T09:32:46.584Z,25.72
2022-08-02T09:37:49.830Z,26.99
2022-08-02T09:43:00.580Z,25.70
2022-08-02T09:48:04.244Z,26.54
2022-08-02T09:53:12.201Z,27.40
2022-08-02T09:58:20.432Z,26.74
2022-08-02T10:03:25.273Z,26.56
2022-08-02T10:08:39.632Z,27.46
2022-08-02T10:13:44.548Z,28.89
2022-08-02T10:18:47.590Z,27.58
2022-08-02T10:23:51.499Z,28.11
2022-08-02T10:28:56.137Z,26.24
2022-08-02T10:34:02.465Z,26.35
2022-08-02T10:39:06.352Z,26.76
2022-08-02T10:44:24.475Z,26.20
2022-08-02T10:49:39.719Z,27.00
2022-08-02T10:54:45.641Z,28.10
2022-08-02T10:59:52.322Z,29.37
2022-08-02T11:05:07.979Z,25.74
2022-08-02T11:10:37.524Z,27.58
2022-08-02T11:15:54.164Z,27.57
2022-08-02T11:21:24.773Z,28.41
2022-08-02T11:26:44.587Z,27.60
2022-08-02T11:31:49.258Z,28.82
2022-08-02T11:36:54.636Z,28.43
2022-08-02T11:41:59.124Z,28.16
2022-08-02T11:47:03.950Z,27.21
2022-08-02T11:52:10.918Z,26.12
2022-08-02T11:57:19.731Z,27.14
2022-08-02T12:02:26.734Z,27.22
2022-08-02T12:07:34.766Z,25.79
2022-08-02T12:12:49.336Z,25.67
2022-08-02T12:18:10.878Z,26.25
2022-08-02T12:23:14.542Z,27.09
2022-08-02T12:28:20.481Z,26.53
2022-08-02T12:33:26.762Z,27.69
2022-08-02T12:38:29.744Z,27.25
2022-08-02T12:43:32.903Z,27.15
2022-08-02T12:48:48.149Z,27.10
2022-08-02T12:54:14.030Z,26.79
2022-08-02T12:59:38.588Z,26.75
2022-08-02T13:04:49.793Z,26.50
2022-08-02T13:10:02.600Z,27.94
2022-08-02T13:15:12.677Z,29.13
2022-08-02T13:20:31.929Z,29.59
2022-08-02T13:25:35.055Z,30.26
2022-08-02T13:30:38.481Z,30.02
2022-08-02T13:35:42.909Z,29.64
2022-08-02T13:41:04.561Z,29.44
2022-08-02T13:46:08.152Z,29.96
2022-08-02T13:51:14.914Z,29.51
2022-08-02T13:56:18.095Z,29.31
2022-08-02T14:01:21.158Z,29.02
2022-08-02T14:06:25.640Z,29.18
2022-08-02T14:11:30.946Z,28.67
2022-08-02T14:16:33.978Z,28.88
2022-08-02T14:21:47.029Z,27.83
2022-08-02T14:26:51.916Z,27.65
2022-08-02T14:31:54.961Z,27.68
2022-08-02T14:36:59.397Z,28.00
2022-08-02T14:42:02.551Z,27.87
2022-08-02T14:47:06.901Z,29.31
2022-08-02T14:52:13.210Z,28.95
2022-08-02T14:57:16.610Z,28.50
2022-08-02T15:02:19.619Z,29.31
2022-08-02T15:07:24.048Z,29.88
2022-08-02T15:12:27.011Z,29.61
2022-08-02T15:17:30.095Z,29.40
2022-08-02T15:22:34.633Z,29.40
2022-08-02T15:27:37.758Z,29.55
2022-08-02T15:32:52.427Z,29.01
2022-08-02T15:37:57.902Z,28.34
2022-08-02T15:43:00.908Z,28.00
2022-08-02T15:48:05.003Z,28.34
2022-08-02T15:53:09.373Z,28.99
2022-08-02T15:58:17.046Z,28.55
2022-08-02T16:03:21.053Z,28.99
2022-08-02T16:08:25.427Z,28.99
2022-08-02T16:13:53.493Z,28.63
2022-08-02T16:18:57.597Z,28.27
2022-08-02T16:24:03.413Z,28.07
2022-08-02T16:29:06.560Z,28.35
2022-08-02T16:34:09.926Z,27.81
2022-08-02T16:39:14.489Z,27.67
2022-08-02T16:44:17.578Z,27.87
2022-08-02T16:50:03.969Z,28.02
2022-08-02T16:54:45.023Z,27.65
2022-08-02T16:59:59.604Z,27.38
2022-08-02T17:05:02.833Z,27.27
2022-08-02T17:10:09.756Z,27.41
2022-08-02T17:20:36.354Z,27.16
2022-08-02T17:25:42.034Z,27.01
2022-08-02T17:30:45.543Z,26.83
2022-08-02T17:35:52.417Z,26.66
2022-08-02T17:40:57.658Z,26.82
2022-08-02T17:46:02.459Z,26.67
2022-08-02T17:51:05.770Z,26.70
2022-08-02T17:56:10.448Z,27.00
2022-08-02T18:01:23.859Z,26.51
2022-08-02T18:06:27.454Z,26.75
2022-08-02T18:11:51.730Z,26.17
2022-08-02T18:16:54.932Z,26.28
2022-08-02T18:21:57.979Z,26.25
2022-08-02T18:27:02.441Z,26.17
2022-08-02T18:32:11.801Z,25.98
2022-08-02T18:37:43.796Z,25.69
2022-08-02T18:42:52.074Z,25.57
2022-08-02T18:47:55.331Z,25.37
2022-08-02T18:52:59.712Z,25.18
2022-08-02T18:58:19.825Z,25.01
2022-08-02T19:03:23.964Z,24.89
2022-08-02T19:08:26.948Z,24.63
2022-08-02T19:13:31.489Z,24.48
2022-08-02T19:18:35.069Z,24.42
2022-08-02T19:23:54.621Z,24.23
2022-08-02T19:29:00.330Z,24.13
2022-08-02T19:34:12.173Z,23.98
2022-08-02T19:39:16.823Z,23.88
2022-08-02T19:44:29.318Z,23.75
2022-08-02T19:49:40.086Z,23.59
2022-08-02T19:54:55.874Z,23.46
2022-08-02T20:00:01.132Z,23.36
2022-08-02T20:05:16.074Z,23.30
2022-08-02T20:10:24.844Z,23.10
2022-08-02T20:15:56.052Z,23.03
2022-08-02T20:20:53.568Z,22.91
2022-08-02T20:25:56.614Z,22.77
2022-08-02T20:31:07.252Z,22.65
2022-08-02T20:36:12.144Z,22.54
2022-08-02T20:41:21.739Z,22.40
2022-08-02T20:46:26.540Z,22.23
2022-08-02T20:51:33.767Z,22.08
2022-08-02T20:56:37.543Z,22.02
2022-08-02T21:01:57.000Z,21.87
2022-08-02T21:07:00.654Z,21.84
2022-08-02T21:12:03.679Z,21.87
2022-08-02T21:17:11.209Z,21.55
2022-08-02T21:22:27.729Z,21.62
2022-08-02T21:27:53.241Z,21.62
2022-08-02T21:32:56.940Z,21.52
2022-08-02T21:38:00.028Z,21.46
2022-08-02T21:43:02.997Z,21.31
2022-08-02T21:48:13.362Z,21.24
2022-08-02T21:53:29.214Z,21.16
2022-08-02T21:58:39.611Z,20.94
2022-08-02T22:09:17.668Z,20.78
2022-08-02T22:14:23.507Z,20.62
2022-08-02T22:19:28.069Z,20.51
2022-08-02T22:24:31.593Z,20.34
2022-08-02T22:29:34.567Z,20.29
2022-08-02T22:34:52.303Z,20.05
2022-08-02T22:40:08.596Z,19.96
2022-08-02T22:45:12.701Z,20.01
2022-08-02T22:50:17.104Z,19.92
2022-08-02T22:55:21.457Z,19.77
2022-08-02T22:58:48.967Z,27.39
2022-08-02T22:59:12.505Z,20.95
2022-08-02T23:00:26.833Z,19.85
2022-08-02T23:05:31.589Z,19.60
2022-08-02T23:10:34.813Z,19.57
2022-08-02T23:15:53.556Z,19.39
2022-08-02T23:20:58.708Z,19.33
2022-08-02T23:26:01.695Z,19.27
2022-08-02T23:31:28.917Z,19.32
2022-08-02T23:36:33.921Z,19.18
2022-08-02T23:41:36.932Z,19.01
2022-08-02T23:46:42.154Z,18.83
2022-08-02T23:51:46.898Z,18.88
2022-08-02T23:56:49.992Z,18.78
